Bardonia, New York
Current Conditions -  °F | °C
As of 6:56 AM on Friday 21 Nov 2014 (Local Time) from KHPN Reporting Station
Clear Clear  
Wind Chill: 16°   Ceiling: Unl
Heat Index: 25°   Visibility: 10mi
Dew Point:   Wind: 8mph
Humidity: 51%   Direction: 290°WNW
Pressure: 30.14"   Gusts: NA
Location:  41.0984°N, 74.0095°W
Report Text: KHPN 211156Z 29007KT 10SM CLR M04/M13 A3014 RMK AO2 SLP216 T10391128 11017 21039 51030
Loading
Personal Weather Stations






























Interactive Weather Map New forecast layout! Learn more

10-Day Weather Forecast

Advertisements
Track Severe Weather on mobile